<?xml version="1.0" encoding="UTF-8" standalone="no" ?>
<gpx xmlns="http://www.topografix.com/GPX/1/1" xmlns:xsi="http://www.w3.org/2001/XMLSchema-instance" xsi:schemaLocation="http://www.topografix.com/GPX/1/1 http://www.topografix.com/GPX/1/1/gpx.xsd" version="1.1" creator="VisuGPX - https://www.visugpx.com">
  <metadata>
    <name>180821 - Jetée de Luc et crash console</name>
    <desc><![CDATA[Circuit en handbike du 21 août 2018]]></desc>
  </metadata>
  <trk>
    <name><![CDATA[180821 - Jetée de Luc et crash console]]></name>
    <trkseg>
      <trkpt lat="49.327" lon="-0.38058">
        <ele>8.79</ele>
        <time>2018-08-21T08:43:41Z</time>
      </trkpt>
      <trkpt lat="49.32705" lon="-0.38057">
        <ele>9.27</ele>
        <time>2018-08-21T08:44:08Z</time>
      </trkpt>
      <trkpt lat="49.32711" lon="-0.38053">
        <ele>10.23</ele>
        <time>2018-08-21T08:45:00Z</time>
      </trkpt>
      <trkpt lat="49.32742" lon="-0.38029">
        <ele>10.71</ele>
        <time>2018-08-21T08:45:51Z</time>
      </trkpt>
      <trkpt lat="49.32799" lon="-0.37989">
        <ele>8.79</ele>
        <time>2018-08-21T08:46:10Z</time>
      </trkpt>
      <trkpt lat="49.32849" lon="-0.37959">
        <ele>6.39</ele>
        <time>2018-08-21T08:46:32Z</time>
      </trkpt>
      <trkpt lat="49.32851" lon="-0.37958">
        <ele>6.39</ele>
        <time>2018-08-21T08:46:33Z</time>
      </trkpt>
      <trkpt lat="49.32855" lon="-0.3795">
        <ele>5.91</ele>
        <time>2018-08-21T08:46:50Z</time>
      </trkpt>
      <trkpt lat="49.32855" lon="-0.3795">
        <ele>6.39</ele>
        <time>2018-08-21T08:47:18Z</time>
      </trkpt>
      <trkpt lat="49.32854" lon="-0.37941">
        <ele>5.91</ele>
        <time>2018-08-21T08:47:22Z</time>
      </trkpt>
      <trkpt lat="49.32837" lon="-0.37878">
        <ele>5.42</ele>
        <time>2018-08-21T08:47:42Z</time>
      </trkpt>
      <trkpt lat="49.32828" lon="-0.37852">
        <ele>5.91</ele>
        <time>2018-08-21T08:48:04Z</time>
      </trkpt>
      <trkpt lat="49.32823" lon="-0.37837">
        <ele>54.45</ele>
        <time>2018-08-21T08:48:50Z</time>
      </trkpt>
      <trkpt lat="49.32656" lon="-0.37245">
        <ele>4.46</ele>
        <time>2018-08-21T08:50:35Z</time>
      </trkpt>
      <trkpt lat="49.32636" lon="-0.37164">
        <ele>2.54</ele>
        <time>2018-08-21T08:50:53Z</time>
      </trkpt>
      <trkpt lat="49.32614" lon="-0.37095">
        <ele>2.54</ele>
        <time>2018-08-21T08:51:11Z</time>
      </trkpt>
      <trkpt lat="49.32591" lon="-0.37062">
        <ele>3.98</ele>
        <time>2018-08-21T08:51:26Z</time>
      </trkpt>
      <trkpt lat="49.32568" lon="-0.36978">
        <ele>4.94</ele>
        <time>2018-08-21T08:51:41Z</time>
      </trkpt>
      <trkpt lat="49.32542" lon="-0.36875">
        <ele>4.94</ele>
        <time>2018-08-21T08:52:00Z</time>
      </trkpt>
      <trkpt lat="49.32519" lon="-0.36793">
        <ele>5.42</ele>
        <time>2018-08-21T08:52:15Z</time>
      </trkpt>
      <trkpt lat="49.32513" lon="-0.36788">
        <ele>5.91</ele>
        <time>2018-08-21T08:52:18Z</time>
      </trkpt>
      <trkpt lat="49.32488" lon="-0.36808">
        <ele>7.83</ele>
        <time>2018-08-21T08:52:37Z</time>
      </trkpt>
      <trkpt lat="49.32482" lon="-0.36817">
        <ele>7.83</ele>
        <time>2018-08-21T08:52:52Z</time>
      </trkpt>
      <trkpt lat="49.32417" lon="-0.36576">
        <ele>8.79</ele>
        <time>2018-08-21T08:53:30Z</time>
      </trkpt>
      <trkpt lat="49.32387" lon="-0.36472">
        <ele>9.27</ele>
        <time>2018-08-21T08:53:46Z</time>
      </trkpt>
      <trkpt lat="49.3236" lon="-0.36345">
        <ele>8.79</ele>
        <time>2018-08-21T08:54:07Z</time>
      </trkpt>
      <trkpt lat="49.32365" lon="-0.36328">
        <ele>8.31</ele>
        <time>2018-08-21T08:54:17Z</time>
      </trkpt>
      <trkpt lat="49.32348" lon="-0.36266">
        <ele>8.31</ele>
        <time>2018-08-21T08:54:36Z</time>
      </trkpt>
      <trkpt lat="49.32324" lon="-0.36197">
        <ele>7.83</ele>
        <time>2018-08-21T08:55:12Z</time>
      </trkpt>
      <trkpt lat="49.32279" lon="-0.36105">
        <ele>7.83</ele>
        <time>2018-08-21T08:55:36Z</time>
      </trkpt>
      <trkpt lat="49.32239" lon="-0.36042">
        <ele>6.39</ele>
        <time>2018-08-21T08:55:54Z</time>
      </trkpt>
      <trkpt lat="49.32206" lon="-0.35958">
        <ele>3.98</ele>
        <time>2018-08-21T08:56:15Z</time>
      </trkpt>
      <trkpt lat="49.32206" lon="-0.35957">
        <ele>4.46</ele>
        <time>2018-08-21T08:56:17Z</time>
      </trkpt>
      <trkpt lat="49.3219" lon="-0.3593">
        <ele>3.98</ele>
        <time>2018-08-21T08:56:35Z</time>
      </trkpt>
      <trkpt lat="49.32184" lon="-0.35913">
        <ele>3.5</ele>
        <time>2018-08-21T08:56:54Z</time>
      </trkpt>
      <trkpt lat="49.32174" lon="-0.35888">
        <ele>3.98</ele>
        <time>2018-08-21T08:57:11Z</time>
      </trkpt>
      <trkpt lat="49.32182" lon="-0.35842">
        <ele>3.5</ele>
        <time>2018-08-21T08:57:27Z</time>
      </trkpt>
      <trkpt lat="49.32153" lon="-0.35741">
        <ele>3.5</ele>
        <time>2018-08-21T08:57:50Z</time>
      </trkpt>
      <trkpt lat="49.32125" lon="-0.35669">
        <ele>3.98</ele>
        <time>2018-08-21T08:58:12Z</time>
      </trkpt>
      <trkpt lat="49.32086" lon="-0.35583">
        <ele>3.5</ele>
        <time>2018-08-21T08:58:34Z</time>
      </trkpt>
      <trkpt lat="49.32056" lon="-0.35501">
        <ele>4.46</ele>
        <time>2018-08-21T08:58:58Z</time>
      </trkpt>
      <trkpt lat="49.32031" lon="-0.35442">
        <ele>3.98</ele>
        <time>2018-08-21T08:59:18Z</time>
      </trkpt>
      <trkpt lat="49.31996" lon="-0.35354">
        <ele>4.94</ele>
        <time>2018-08-21T08:59:43Z</time>
      </trkpt>
      <trkpt lat="49.31975" lon="-0.35303">
        <ele>4.94</ele>
        <time>2018-08-21T09:00:00Z</time>
      </trkpt>
      <trkpt lat="49.31961" lon="-0.35274">
        <ele>4.94</ele>
        <time>2018-08-21T09:00:20Z</time>
      </trkpt>
      <trkpt lat="49.31953" lon="-0.35252">
        <ele>4.46</ele>
        <time>2018-08-21T09:01:12Z</time>
      </trkpt>
      <trkpt lat="49.31943" lon="-0.35228">
        <ele>4.46</ele>
        <time>2018-08-21T09:01:16Z</time>
      </trkpt>
      <trkpt lat="49.31893" lon="-0.35102">
        <ele>4.46</ele>
        <time>2018-08-21T09:01:38Z</time>
      </trkpt>
      <trkpt lat="49.31872" lon="-0.35046">
        <ele>3.98</ele>
        <time>2018-08-21T09:01:55Z</time>
      </trkpt>
      <trkpt lat="49.31836" lon="-0.34972">
        <ele>3.98</ele>
        <time>2018-08-21T09:02:19Z</time>
      </trkpt>
      <trkpt lat="49.318" lon="-0.34876">
        <ele>3.98</ele>
        <time>2018-08-21T09:02:47Z</time>
      </trkpt>
      <trkpt lat="49.31797" lon="-0.34867">
        <ele>6.87</ele>
        <time>2018-08-21T09:17:54Z</time>
      </trkpt>
      <trkpt lat="49.31795" lon="-0.34871">
        <ele>6.39</ele>
        <time>2018-08-21T09:18:16Z</time>
      </trkpt>
      <trkpt lat="49.31797" lon="-0.34874">
        <ele>6.39</ele>
        <time>2018-08-21T09:18:24Z</time>
      </trkpt>
      <trkpt lat="49.31824" lon="-0.3493">
        <ele>5.91</ele>
        <time>2018-08-21T09:18:50Z</time>
      </trkpt>
      <trkpt lat="49.31864" lon="-0.35028">
        <ele>5.42</ele>
        <time>2018-08-21T09:19:20Z</time>
      </trkpt>
      <trkpt lat="49.31905" lon="-0.35113">
        <ele>5.42</ele>
        <time>2018-08-21T09:19:48Z</time>
      </trkpt>
      <trkpt lat="49.31948" lon="-0.35211">
        <ele>5.91</ele>
        <time>2018-08-21T09:20:21Z</time>
      </trkpt>
      <trkpt lat="49.31974" lon="-0.35283">
        <ele>6.87</ele>
        <time>2018-08-21T09:20:46Z</time>
      </trkpt>
      <trkpt lat="49.32014" lon="-0.35383">
        <ele>5.42</ele>
        <time>2018-08-21T09:21:21Z</time>
      </trkpt>
      <trkpt lat="49.32049" lon="-0.35458">
        <ele>5.42</ele>
        <time>2018-08-21T09:21:46Z</time>
      </trkpt>
      <trkpt lat="49.32074" lon="-0.35521">
        <ele>5.42</ele>
        <time>2018-08-21T09:22:06Z</time>
      </trkpt>
      <trkpt lat="49.32112" lon="-0.35619">
        <ele>5.91</ele>
        <time>2018-08-21T09:22:36Z</time>
      </trkpt>
      <trkpt lat="49.3216" lon="-0.3571">
        <ele>4.94</ele>
        <time>2018-08-21T09:23:06Z</time>
      </trkpt>
      <trkpt lat="49.32182" lon="-0.35791">
        <ele>5.91</ele>
        <time>2018-08-21T09:23:32Z</time>
      </trkpt>
      <trkpt lat="49.32194" lon="-0.35876">
        <ele>5.91</ele>
        <time>2018-08-21T09:23:56Z</time>
      </trkpt>
      <trkpt lat="49.32189" lon="-0.35921">
        <ele>5.42</ele>
        <time>2018-08-21T09:24:16Z</time>
      </trkpt>
      <trkpt lat="49.32198" lon="-0.35991">
        <ele>6.39</ele>
        <time>2018-08-21T09:24:39Z</time>
      </trkpt>
      <trkpt lat="49.32662" lon="-0.38084">
        <ele>11.67</ele>
        <time>2018-08-21T09:36:14Z</time>
      </trkpt>
      <trkpt lat="49.32654" lon="-0.38095">
        <ele>11.19</ele>
        <time>2018-08-21T09:36:26Z</time>
      </trkpt>
    </trkseg>
  </trk>
</gpx>